createdAt,value
2023-03-03T00:01:15.454Z,98769.81
2023-03-03T00:03:42.153Z,98763.03
2023-03-03T00:06:11.010Z,98763.56
2023-03-03T00:08:37.760Z,98758.88
2023-03-03T00:11:06.303Z,98765.16
2023-03-03T00:13:33.398Z,98761.09
2023-03-03T00:16:14.151Z,98768.91
2023-03-03T00:18:44.410Z,98767.06
2023-03-03T00:21:26.550Z,98773.47
2023-03-03T00:23:53.346Z,98773.38
2023-03-03T00:26:29.384Z,98770.16
2023-03-03T00:28:57.096Z,98778.38
2023-03-03T00:31:34.566Z,98772.50
2023-03-03T00:34:25.982Z,98771.69
2023-03-03T00:36:57.200Z,98776.84
2023-03-03T00:39:38.193Z,98781.72
2023-03-03T00:42:15.104Z,98779.78
2023-03-03T00:44:44.322Z,98775.56
2023-03-03T00:47:18.080Z,98782.09
2023-03-03T00:49:44.711Z,98775.56
2023-03-03T00:52:17.428Z,98782.91
2023-03-03T00:54:44.013Z,98786.91
2023-03-03T00:57:14.490Z,98788.56
2023-03-03T00:59:42.482Z,98786.50
2023-03-03T01:02:09.111Z,98779.41
2023-03-03T01:04:36.354Z,98778.94
2023-03-03T01:07:03.281Z,98779.00
2023-03-03T01:09:29.897Z,98779.75
2023-03-03T01:11:56.442Z,98782.94
2023-03-03T01:14:23.204Z,98778.19
2023-03-03T01:16:51.142Z,98782.50
2023-03-03T01:19:17.979Z,98785.25
2023-03-03T01:21:44.452Z,98789.63
2023-03-03T01:24:11.094Z,98787.91
2023-03-03T01:26:37.610Z,98779.59
2023-03-03T01:29:05.033Z,98787.97
2023-03-03T01:31:31.596Z,98787.34
2023-03-03T01:33:58.309Z,98786.81
2023-03-03T01:36:26.221Z,98787.19
2023-03-03T01:38:53.935Z,98789.13
2023-03-03T01:41:21.111Z,98783.22
2023-03-03T01:43:50.143Z,98781.34
2023-03-03T01:46:38.559Z,98783.66
2023-03-03T01:49:12.851Z,98787.38
2023-03-03T01:51:47.146Z,98778.75
2023-03-03T01:54:29.972Z,98782.84
2023-03-03T01:57:01.110Z,98778.69
2023-03-03T01:59:34.419Z,98773.56
2023-03-03T02:02:01.267Z,98773.06
2023-03-03T02:04:28.755Z,98770.47
2023-03-03T02:07:00.549Z,98770.94
2023-03-03T02:09:27.196Z,98764.94
2023-03-03T02:11:59.490Z,98762.97
2023-03-03T02:14:26.286Z,98766.66
2023-03-03T02:16:52.845Z,98769.50
2023-03-03T02:19:45.996Z,98771.09
2023-03-03T02:22:16.827Z,98769.31
2023-03-03T02:24:51.469Z,98777.13
2023-03-03T02:27:19.697Z,98784.44
2023-03-03T02:29:46.454Z,98784.75
2023-03-03T02:32:13.065Z,98777.75
2023-03-03T02:34:48.745Z,98778.47
2023-03-03T02:37:15.323Z,98773.72
2023-03-03T02:39:43.285Z,98766.97
2023-03-03T02:42:21.913Z,98772.16
2023-03-03T02:44:52.916Z,98774.72
2023-03-03T02:47:19.470Z,98774.19
2023-03-03T02:49:46.256Z,98769.03
2023-03-03T02:52:14.853Z,98776.38
2023-03-03T02:54:44.938Z,98770.91
2023-03-03T02:57:11.482Z,98767.19
2023-03-03T02:59:38.126Z,98776.69
2023-03-03T03:02:09.806Z,98771.34
2023-03-03T03:04:36.371Z,98769.16
2023-03-03T03:07:03.971Z,98772.47
2023-03-03T03:09:32.591Z,98775.47
2023-03-03T03:12:02.383Z,98775.28
2023-03-03T03:14:30.953Z,98771.66
2023-03-03T03:16:58.807Z,98772.16
2023-03-03T03:19:26.954Z,98785.28
2023-03-03T03:21:53.551Z,98781.88
2023-03-03T03:24:20.639Z,98776.91
2023-03-03T03:26:53.649Z,98773.28
2023-03-03T03:29:21.397Z,98775.88
2023-03-03T03:31:47.975Z,98777.00
2023-03-03T03:34:14.468Z,98782.19
2023-03-03T03:36:41.010Z,98779.28
2023-03-03T03:39:08.063Z,98779.41
2023-03-03T03:41:37.599Z,98789.53
2023-03-03T03:44:04.498Z,98783.94
2023-03-03T03:46:31.081Z,98784.25
2023-03-03T03:48:57.702Z,98790.75
2023-03-03T03:51:25.043Z,98788.69
2023-03-03T03:53:51.572Z,98779.59
2023-03-03T03:56:18.135Z,98784.63
2023-03-03T03:58:47.892Z,98784.00
2023-03-03T04:01:15.347Z,98776.81
2023-03-03T04:03:46.498Z,98782.38
2023-03-03T04:06:16.975Z,98781.03
2023-03-03T04:08:44.208Z,98784.44
2023-03-03T04:11:11.211Z,98790.44
2023-03-03T04:13:38.055Z,98792.56
2023-03-03T04:16:07.035Z,98788.69
2023-03-03T04:18:35.684Z,98793.22
2023-03-03T04:21:03.151Z,98794.75
2023-03-03T04:23:29.732Z,98786.56
2023-03-03T04:25:56.234Z,98783.78
2023-03-03T04:28:25.148Z,98787.63
2023-03-03T04:30:52.074Z,98784.75
2023-03-03T04:33:20.475Z,98790.75
2023-03-03T04:35:48.347Z,98786.00
2023-03-03T04:38:15.364Z,98794.97
2023-03-03T04:40:42.832Z,98796.28
2023-03-03T04:43:13.179Z,98794.00
2023-03-03T04:45:39.798Z,98797.63
2023-03-03T04:48:07.364Z,98799.13
2023-03-03T04:50:34.947Z,98798.19
2023-03-03T04:53:02.129Z,98799.56
2023-03-03T04:55:28.679Z,98797.59
2023-03-03T04:57:55.144Z,98797.66
2023-03-03T05:00:22.255Z,98799.31
2023-03-03T05:02:49.105Z,98797.03
2023-03-03T05:05:16.370Z,98803.34
2023-03-03T05:07:42.862Z,98809.94
2023-03-03T05:10:10.010Z,98811.97
2023-03-03T05:12:36.630Z,98808.88
2023-03-03T05:15:03.216Z,98817.38
2023-03-03T05:17:29.822Z,98823.47
2023-03-03T05:19:57.281Z,98820.97
2023-03-03T05:22:24.768Z,98817.78
2023-03-03T05:24:51.613Z,98814.44
2023-03-03T05:27:18.131Z,98816.47
2023-03-03T05:29:44.930Z,98812.94
2023-03-03T05:32:11.486Z,98819.88
2023-03-03T05:34:38.204Z,98817.41
2023-03-03T05:37:06.665Z,98824.50
2023-03-03T05:39:34.052Z,98825.63
2023-03-03T05:42:00.747Z,98828.22
2023-03-03T05:44:27.439Z,98837.63
2023-03-03T05:46:53.989Z,98834.69
2023-03-03T05:49:20.525Z,98837.34
2023-03-03T05:51:46.979Z,98837.53
2023-03-03T05:54:13.532Z,98842.47
2023-03-03T05:56:40.008Z,98851.44
2023-03-03T05:59:06.488Z,98848.06
2023-03-03T06:01:33.235Z,98850.31
2023-03-03T06:03:59.756Z,98852.41
2023-03-03T06:06:26.660Z,98857.66
2023-03-03T06:08:55.520Z,98856.59
2023-03-03T06:11:23.705Z,98856.66
2023-03-03T06:13:50.208Z,98857.06
2023-03-03T06:16:16.702Z,98860.50
2023-03-03T06:18:43.162Z,98862.53
2023-03-03T06:21:09.627Z,98867.13
2023-03-03T06:23:36.117Z,98868.06
2023-03-03T06:26:02.641Z,98870.00
2023-03-03T06:28:29.165Z,98873.41
2023-03-03T06:30:56.759Z,98867.81
2023-03-03T06:33:23.742Z,98872.19
2023-03-03T06:35:54.815Z,98873.38
2023-03-03T06:38:21.424Z,98873.78
2023-03-03T06:40:48.115Z,98875.16
2023-03-03T06:43:14.644Z,98877.88
2023-03-03T06:45:41.321Z,98880.84
2023-03-03T06:48:07.843Z,98878.75
2023-03-03T06:50:34.929Z,98875.63
2023-03-03T06:53:21.846Z,98883.38
2023-03-03T06:55:48.578Z,98896.31
2023-03-03T06:58:20.633Z,98900.34
2023-03-03T07:00:50.125Z,98906.03
2023-03-03T07:03:19.982Z,98904.19
2023-03-03T07:05:46.561Z,98907.06
2023-03-03T07:08:20.993Z,98911.38
2023-03-03T07:10:49.299Z,98913.34
2023-03-03T07:13:27.254Z,98916.94
2023-03-03T07:15:55.925Z,98915.34
2023-03-03T07:18:40.803Z,98906.78
2023-03-03T07:21:16.339Z,98920.38
2023-03-03T07:23:44.547Z,98921.91
2023-03-03T07:26:17.469Z,98915.13
2023-03-03T07:28:52.153Z,98924.06
2023-03-03T07:31:44.615Z,98906.91
2023-03-03T07:34:24.294Z,98905.25
2023-03-03T07:36:54.811Z,98909.34
2023-03-03T07:39:25.495Z,98913.38
2023-03-03T07:41:52.151Z,98909.75
2023-03-03T07:44:26.161Z,98914.75
2023-03-03T07:46:52.743Z,98919.81
2023-03-03T07:49:37.140Z,98915.47
2023-03-03T07:52:32.190Z,98918.78
2023-03-03T07:55:19.772Z,98921.53
2023-03-03T07:57:46.961Z,98927.00
2023-03-03T08:00:16.658Z,98933.06
2023-03-03T08:02:58.097Z,98929.03
2023-03-03T08:05:28.687Z,98931.75
2023-03-03T08:08:03.629Z,98926.41
2023-03-03T08:10:48.335Z,98938.22
2023-03-03T08:13:34.166Z,98923.94
2023-03-03T08:16:09.810Z,98928.16
2023-03-03T08:18:40.171Z,98928.50
2023-03-03T08:21:19.734Z,98932.00
2023-03-03T08:23:46.551Z,98929.25
2023-03-03T08:26:13.998Z,98930.47
2023-03-03T08:28:40.865Z,98930.94
2023-03-03T08:31:18.374Z,98927.34
2023-03-03T08:33:49.065Z,98929.91
2023-03-03T08:36:15.558Z,98932.47
2023-03-03T08:38:42.168Z,98942.66
2023-03-03T08:41:08.777Z,98946.06
2023-03-03T08:43:35.261Z,98943.78
2023-03-03T08:46:05.205Z,98943.53
2023-03-03T08:48:32.870Z,98946.41
2023-03-03T08:51:00.217Z,98942.63
2023-03-03T08:53:28.042Z,98943.50
2023-03-03T08:55:55.227Z,98937.16
2023-03-03T08:58:33.478Z,98943.50
2023-03-03T09:01:01.162Z,98945.44
2023-03-03T09:03:27.672Z,98941.00
2023-03-03T09:05:54.165Z,98932.16
2023-03-03T09:08:20.732Z,98941.94
2023-03-03T09:10:47.191Z,98941.06
2023-03-03T09:13:16.701Z,98932.41
2023-03-03T09:15:44.838Z,98936.91
2023-03-03T09:18:18.558Z,98940.53
2023-03-03T09:20:48.206Z,98937.00
2023-03-03T09:23:35.793Z,98940.84
2023-03-03T09:26:29.724Z,98949.09
2023-03-03T09:29:14.027Z,98957.28
2023-03-03T09:31:51.757Z,98968.81
2023-03-03T09:34:23.556Z,98954.34
2023-03-03T09:36:52.307Z,98954.78
2023-03-03T09:39:21.703Z,98951.59
2023-03-03T09:42:26.045Z,98943.41
2023-03-03T09:45:00.214Z,98942.94
2023-03-03T09:47:47.606Z,98949.00
2023-03-03T09:50:52.303Z,98947.44
2023-03-03T09:53:24.538Z,98956.63
2023-03-03T09:55:57.117Z,98955.91
2023-03-03T09:58:30.663Z,98960.81
2023-03-03T10:01:06.219Z,98959.34
2023-03-03T10:03:32.663Z,98960.31
2023-03-03T10:06:11.223Z,98954.50
2023-03-03T10:09:00.737Z,98962.22
2023-03-03T10:11:39.937Z,98967.81
2023-03-03T10:14:15.473Z,98961.13
2023-03-03T10:17:01.555Z,98965.91
2023-03-03T10:19:40.606Z,98965.66
2023-03-03T10:22:17.246Z,98968.41
2023-03-03T10:25:05.075Z,98966.00
2023-03-03T10:28:10.618Z,98969.78
2023-03-03T10:31:06.815Z,98962.47
2023-03-03T10:34:03.246Z,98972.09
2023-03-03T10:37:00.724Z,98969.06
2023-03-03T10:39:45.379Z,98972.81
2023-03-03T10:42:28.083Z,98973.56
2023-03-03T10:45:26.974Z,98969.41
2023-03-03T10:47:56.312Z,98970.50
2023-03-03T10:50:25.645Z,98983.81
2023-03-03T10:53:27.461Z,98978.28
2023-03-03T10:55:57.762Z,98979.19
2023-03-03T10:58:56.688Z,98972.41
2023-03-03T11:01:39.041Z,98958.91
2023-03-03T11:04:14.474Z,98953.69
2023-03-03T11:06:53.797Z,98955.78
2023-03-03T11:09:57.427Z,98961.00
2023-03-03T11:12:35.062Z,98956.47
2023-03-03T11:15:25.089Z,98949.47
2023-03-03T11:18:00.399Z,98953.06
2023-03-03T11:20:36.051Z,98935.75
2023-03-03T11:23:24.372Z,98952.44
2023-03-03T11:26:08.008Z,98952.88
2023-03-03T11:28:47.600Z,98952.59
2023-03-03T11:31:48.178Z,98951.44
2023-03-03T11:34:36.234Z,98949.78
2023-03-03T11:37:15.502Z,98955.41
2023-03-03T11:39:44.066Z,98954.91
2023-03-03T11:42:42.865Z,98954.16
2023-03-03T11:45:15.678Z,98951.97
2023-03-03T11:47:59.381Z,98946.03
2023-03-03T11:50:38.293Z,98937.03
2023-03-03T11:53:31.794Z,98931.22
2023-03-03T11:56:22.039Z,98940.78
2023-03-03T11:59:04.653Z,98934.56
2023-03-03T12:01:39.493Z,98934.25
2023-03-03T12:04:18.856Z,98940.59
2023-03-03T12:07:19.972Z,98931.22
2023-03-03T12:10:07.277Z,98922.78
2023-03-03T12:12:42.641Z,98924.94
2023-03-03T12:15:31.266Z,98916.25
2023-03-03T12:18:20.065Z,98923.25
2023-03-03T12:20:56.723Z,98929.66
2023-03-03T12:23:49.242Z,98934.53
2023-03-03T12:26:39.680Z,98932.72
2023-03-03T12:29:36.853Z,98930.97
2023-03-03T12:32:32.912Z,98919.06
2023-03-03T12:35:28.780Z,98920.06
2023-03-03T12:38:08.159Z,98910.19
2023-03-03T12:40:38.912Z,98920.28
2023-03-03T12:43:30.133Z,98907.06
2023-03-03T12:46:28.185Z,98907.22
2023-03-03T12:48:55.349Z,98903.00
2023-03-03T12:51:48.409Z,98893.66
2023-03-03T12:55:04.721Z,98889.84
2023-03-03T12:57:59.364Z,98890.81
2023-03-03T13:00:38.188Z,98889.50
2023-03-03T13:03:17.906Z,98889.03
2023-03-03T13:06:21.182Z,98893.53
2023-03-03T13:08:54.092Z,98888.19
2023-03-03T13:11:54.064Z,98884.81
2023-03-03T13:14:26.628Z,98878.41
2023-03-03T13:17:31.246Z,98885.06
2023-03-03T13:20:05.795Z,98889.78
2023-03-03T13:22:32.352Z,98897.41
2023-03-03T13:25:07.594Z,98896.38
2023-03-03T13:27:44.078Z,98892.44
2023-03-03T13:30:20.504Z,98890.34
2023-03-03T13:33:05.140Z,98882.75
2023-03-03T13:35:44.504Z,98884.56
2023-03-03T13:38:20.893Z,98885.84
2023-03-03T13:41:12.527Z,98878.00
2023-03-03T13:44:01.908Z,98884.41
2023-03-03T13:46:35.690Z,98883.09
2023-03-03T13:49:20.810Z,98880.66
2023-03-03T13:52:05.457Z,98886.75
2023-03-03T13:54:50.381Z,98883.91
2023-03-03T13:57:29.659Z,98887.63
2023-03-03T14:00:18.332Z,98884.59
2023-03-03T14:03:17.820Z,98878.06
2023-03-03T14:05:48.662Z,98875.25
2023-03-03T14:08:21.194Z,98873.56
2023-03-03T14:11:11.100Z,98868.38
2023-03-03T14:13:50.866Z,98869.81
2023-03-03T14:16:30.195Z,98871.47
2023-03-03T14:19:05.718Z,98864.84
2023-03-03T14:21:38.258Z,98865.88
2023-03-03T14:24:15.033Z,98871.34
2023-03-03T14:26:56.800Z,98860.19
2023-03-03T14:29:32.308Z,98870.34
2023-03-03T14:32:01.769Z,98863.44
2023-03-03T14:34:41.823Z,98860.88
2023-03-03T14:37:44.707Z,98848.44
2023-03-03T14:40:22.738Z,98844.69
2023-03-03T14:42:52.085Z,98851.56
2023-03-03T14:45:36.942Z,98849.59
2023-03-03T14:48:23.583Z,98847.50
2023-03-03T14:50:54.000Z,98845.47
2023-03-03T14:53:34.182Z,98842.53
2023-03-03T14:56:32.937Z,98843.34
2023-03-03T14:59:20.100Z,98848.72
2023-03-03T15:01:47.338Z,98844.69
2023-03-03T15:04:13.899Z,98843.09
2023-03-03T15:06:49.385Z,98838.66
2023-03-03T15:09:30.523Z,98841.00
2023-03-03T15:11:59.069Z,98834.22
2023-03-03T15:14:30.468Z,98834.91
2023-03-03T15:17:12.138Z,98842.56
2023-03-03T15:19:46.389Z,98841.97
2023-03-03T15:22:18.601Z,98833.13
2023-03-03T15:25:14.584Z,98847.78
2023-03-03T15:28:22.717Z,98837.28
2023-03-03T15:30:52.419Z,98837.03
2023-03-03T15:33:30.505Z,98841.75
2023-03-03T15:36:28.898Z,98842.31
2023-03-03T15:39:01.249Z,98847.81
2023-03-03T15:41:43.676Z,98840.38
2023-03-03T15:44:33.086Z,98836.28
2023-03-03T15:47:24.391Z,98845.16
2023-03-03T15:50:24.176Z,98850.66
2023-03-03T15:53:01.176Z,98850.53
2023-03-03T15:55:46.548Z,98849.88
2023-03-03T15:58:49.255Z,98845.66
2023-03-03T16:01:21.310Z,98859.94
2023-03-03T16:03:54.640Z,98855.72
2023-03-03T16:06:37.322Z,98859.97
2023-03-03T16:09:28.800Z,98862.28
2023-03-03T16:12:10.702Z,98872.13
2023-03-03T16:14:56.320Z,98867.53
2023-03-03T16:17:28.748Z,98869.81
2023-03-03T16:20:28.673Z,98874.25
2023-03-03T16:23:17.240Z,98880.47
2023-03-03T16:26:01.945Z,98888.16
2023-03-03T16:28:31.390Z,98879.16
2023-03-03T16:31:03.901Z,98885.38
2023-03-03T16:33:43.882Z,98884.13
2023-03-03T16:36:21.794Z,98880.06
2023-03-03T16:39:01.740Z,98886.53
2023-03-03T16:41:46.405Z,98883.94
2023-03-03T16:44:21.239Z,98896.09
2023-03-03T16:46:49.731Z,98895.41
2023-03-03T16:49:31.792Z,98903.34
2023-03-03T16:52:12.004Z,98901.88
2023-03-03T16:54:56.186Z,98908.75
2023-03-03T16:57:43.677Z,98911.16
2023-03-03T17:00:29.997Z,98915.84
2023-03-03T17:03:14.953Z,98921.09
2023-03-03T17:05:57.855Z,98928.78
2023-03-03T17:08:44.569Z,98930.13
2023-03-03T17:11:20.111Z,98933.41
2023-03-03T17:14:40.697Z,98933.59
2023-03-03T17:17:31.363Z,98927.84
2023-03-03T17:20:17.750Z,98940.03
2023-03-03T17:23:02.964Z,98940.59
2023-03-03T17:25:45.493Z,98950.31
2023-03-03T17:28:59.120Z,98955.06
2023-03-03T17:31:48.625Z,98957.06
2023-03-03T17:34:50.384Z,98966.25
2023-03-03T17:37:26.959Z,98962.47
2023-03-03T17:40:17.691Z,98961.38
2023-03-03T17:42:53.205Z,98961.75
2023-03-03T17:45:22.108Z,98973.91
2023-03-03T17:48:09.036Z,98970.28
2023-03-03T17:51:11.397Z,98979.41
2023-03-03T17:53:44.070Z,98978.06
2023-03-03T17:56:22.843Z,98993.44
2023-03-03T17:59:18.755Z,98992.47
2023-03-03T18:02:16.075Z,98991.09
2023-03-03T18:05:13.911Z,98998.78
2023-03-03T18:08:00.513Z,98998.38
2023-03-03T18:10:48.760Z,98995.06
2023-03-03T18:13:44.484Z,99004.00
2023-03-03T18:16:48.584Z,99005.66
2023-03-03T18:19:29.063Z,99006.34
2023-03-03T18:22:06.743Z,99002.91
2023-03-03T18:24:33.116Z,99007.16
2023-03-03T18:27:24.592Z,99003.63
2023-03-03T18:30:15.800Z,99009.75
2023-03-03T18:32:47.185Z,99005.41
2023-03-03T18:35:28.008Z,99016.09
2023-03-03T18:37:55.283Z,99018.72
2023-03-03T18:40:28.361Z,99020.91
2023-03-03T18:42:55.501Z,99027.91
2023-03-03T18:45:23.012Z,99022.28
2023-03-03T18:48:09.894Z,99033.91
2023-03-03T18:50:41.935Z,99028.28
2023-03-03T18:53:30.442Z,99028.13
2023-03-03T18:56:02.000Z,99037.91
2023-03-03T18:58:36.286Z,99035.53
2023-03-03T19:01:12.105Z,99039.94
2023-03-03T19:03:47.519Z,99033.91
2023-03-03T19:06:56.568Z,99040.44
2023-03-03T19:09:46.613Z,99041.56
2023-03-03T19:12:16.787Z,99050.47
2023-03-03T19:14:48.614Z,99052.72
2023-03-03T19:17:18.216Z,99053.53
2023-03-03T19:20:05.963Z,99052.34
2023-03-03T19:22:44.816Z,99060.72
2023-03-03T19:25:18.652Z,99057.78
2023-03-03T19:27:58.417Z,99058.63
2023-03-03T19:30:43.543Z,99062.41
2023-03-03T19:33:40.688Z,99059.66
2023-03-03T19:36:39.560Z,99059.38
2023-03-03T19:39:36.389Z,99063.78
2023-03-03T19:42:28.230Z,99059.13
2023-03-03T19:44:57.712Z,99072.34
2023-03-03T19:48:02.382Z,99068.97
2023-03-03T19:50:59.847Z,99067.31
2023-03-03T19:53:41.498Z,99074.22
2023-03-03T19:56:20.493Z,99070.75
2023-03-03T19:58:59.565Z,99071.03
2023-03-03T20:01:47.535Z,99084.81
2023-03-03T20:04:38.677Z,99080.31
2023-03-03T20:07:24.893Z,99087.28
2023-03-03T20:10:16.136Z,99095.31
2023-03-03T20:12:53.140Z,99102.19
2023-03-03T20:15:32.388Z,99088.16
2023-03-03T20:18:01.589Z,99099.16
2023-03-03T20:20:46.831Z,99095.59
2023-03-03T20:23:32.189Z,99096.28
2023-03-03T20:26:13.843Z,99100.84
2023-03-03T20:29:14.435Z,99099.34
2023-03-03T20:31:50.089Z,99099.81
2023-03-03T20:34:43.951Z,99108.59
2023-03-03T20:37:17.211Z,99109.50
2023-03-03T20:40:02.014Z,99111.88
2023-03-03T20:43:00.316Z,99118.03
2023-03-03T20:45:29.755Z,99103.75
2023-03-03T20:48:06.616Z,99115.34
2023-03-03T20:50:49.950Z,99122.19
2023-03-03T20:53:30.943Z,99120.31
2023-03-03T20:56:09.468Z,99120.41
2023-03-03T20:59:13.643Z,99119.22
2023-03-03T21:01:58.414Z,99122.03
2023-03-03T21:04:30.890Z,99118.34
2023-03-03T21:06:58.409Z,99120.09
2023-03-03T21:09:35.168Z,99124.09
2023-03-03T21:12:23.125Z,99128.09
2023-03-03T21:15:04.001Z,99121.47
2023-03-03T21:17:31.750Z,99120.19
2023-03-03T21:20:20.493Z,99123.53
2023-03-03T21:22:47.032Z,99125.72
2023-03-03T21:25:43.329Z,99124.47
2023-03-03T21:28:15.072Z,99125.38
2023-03-03T21:31:11.241Z,99131.47
2023-03-03T21:33:40.380Z,99129.44
2023-03-03T21:36:07.298Z,99131.50
2023-03-03T21:38:34.811Z,99132.19
2023-03-03T21:41:02.585Z,99137.44
2023-03-03T21:43:41.560Z,99134.44
2023-03-03T21:46:08.471Z,99134.28
2023-03-03T21:48:35.081Z,99139.69
2023-03-03T21:51:01.685Z,99142.88
2023-03-03T21:53:29.575Z,99140.59
2023-03-03T21:55:56.230Z,99143.19
2023-03-03T21:58:22.723Z,99141.38
2023-03-03T22:00:49.225Z,99139.44
2023-03-03T22:03:16.794Z,99142.47
2023-03-03T22:05:43.741Z,99151.19
2023-03-03T22:08:10.198Z,99147.78
2023-03-03T22:10:36.648Z,99151.63
2023-03-03T22:13:03.197Z,99149.00
2023-03-03T22:15:33.167Z,99150.88
2023-03-03T22:18:00.683Z,99154.28
2023-03-03T22:20:27.313Z,99153.78
2023-03-03T22:22:53.905Z,99153.28
2023-03-03T22:25:20.404Z,99154.94
2023-03-03T22:27:46.902Z,99153.91
2023-03-03T22:30:13.894Z,99151.69
2023-03-03T22:32:40.364Z,99152.34
2023-03-03T22:35:07.579Z,99148.19
2023-03-03T22:37:34.011Z,99151.50
2023-03-03T22:40:01.279Z,99156.69
2023-03-03T22:42:27.903Z,99156.56
2023-03-03T22:44:54.448Z,99156.56
2023-03-03T22:47:20.923Z,99154.28
2023-03-03T22:49:47.370Z,99152.91
2023-03-03T22:52:13.806Z,99156.06
2023-03-03T22:54:40.734Z,99153.13
2023-03-03T22:57:07.170Z,99160.34
2023-03-03T22:59:34.504Z,99149.59
2023-03-03T23:02:01.007Z,99161.75
2023-03-03T23:04:27.575Z,99159.69
2023-03-03T23:06:54.075Z,99161.94
2023-03-03T23:09:20.599Z,99162.19
2023-03-03T23:11:47.023Z,99171.06
2023-03-03T23:14:13.570Z,99169.00
2023-03-03T23:16:40.083Z,99169.91
2023-03-03T23:19:06.536Z,99169.38
2023-03-03T23:21:33.052Z,99167.53
2023-03-03T23:23:59.562Z,99172.53
2023-03-03T23:26:26.185Z,99174.97
2023-03-03T23:28:52.664Z,99175.50
2023-03-03T23:31:19.204Z,99180.44
2023-03-03T23:33:45.751Z,99182.00
2023-03-03T23:36:12.439Z,99181.91
2023-03-03T23:38:39.493Z,99180.00
2023-03-03T23:41:06.735Z,99182.72
2023-03-03T23:43:33.576Z,99182.38
2023-03-03T23:46:00.092Z,99194.59
2023-03-03T23:48:26.605Z,99187.13
2023-03-03T23:50:53.055Z,99193.97
2023-03-03T23:53:19.578Z,99193.75
2023-03-03T23:55:46.058Z,99196.91
2023-03-03T23:58:12.659Z,99199.22
